Time;durP1;ratioP1;P1;durP2;ratioP2;P2;SDS_P1;SDS_P2;PMS_P1;PMS_P2;Temp;Humidity;BMP_temperature;BMP_pressure;BME280_temperature;BME280_humidity;BME280_pressure;Samples;Min_cycle;Max_cycle;Signal;HPM_P1;HPM_P2
2023/12/29 15:21:01;;;;;;;388.33;113.38;;;;;;;;;;5968486;22;20621;-83
2023/12/29 15:23:28;;;;;;;7.22;2.00;;;;;;;;;;5048897;28;20029;-88
2023/12/29 15:25:54;;;;;;;157.90;56.75;;;;;;;;;;5048731;28;20480;-84
2023/12/29 15:28:21;;;;;;;9.30;2.75;;;;;;;;;;5048670;28;20083;-86
2023/12/29 15:30:48;;;;;;;7.95;2.35;;;;;;;;;;5048758;28;20071;-85
2023/12/29 15:33:14;;;;;;;6.85;1.83;;;;;;;;;;5048588;28;20017;-85
2023/12/29 15:35:40;;;;;;;2.30;1.15;;;;;;;;;;5049431;28;20433;-85
2023/12/29 15:38:07;;;;;;;9.18;1.52;;;;;;;;;;5052304;28;20048;-85
2023/12/29 15:40:33;;;;;;;8.52;2.35;;;;;;;;;;5052552;28;20037;-85
2023/12/29 15:43:00;;;;;;;9.50;2.83;;;;;;;;;;5052450;28;20156;-84
2023/12/29 15:45:25;;;;;;;8.00;2.50;;;;;;;;;;5051976;28;20078;-85
2023/12/29 15:47:51;;;;;;;11.55;2.47;;;;;;;;;;5048971;28;20112;-84
2023/12/29 15:50:18;;;;;;;7.80;1.90;;;;;;;;;;5051668;28;20032;-88
2023/12/29 15:52:44;;;;;;;8.20;2.08;;;;;;;;;;5050049;28;20514;-85
2023/12/29 15:55:10;;;;;;;7.18;2.55;;;;;;;;;;5050145;28;20029;-85
2023/12/29 15:57:36;;;;;;;8.30;2.30;;;;;;;;;;5052124;28;20063;-85
2023/12/29 16:00:05;;;;;;;7.30;2.20;;;;;;;;;;5052819;28;20032;-85
2023/12/29 16:02:31;;;;;;;12.13;2.58;;;;;;;;;;5018919;28;20120;-89
2023/12/29 16:04:57;;;;;;;6.68;2.00;;;;;;;;;;5031299;28;20109;-85
2023/12/29 16:07:23;;;;;;;5.95;1.75;;;;;;;;;;5023988;28;20048;-89
2023/12/29 16:09:49;;;;;;;10.07;2.35;;;;;;;;;;5032946;28;20559;-87
2023/12/29 16:12:15;;;;;;;9.20;2.47;;;;;;;;;;5043012;28;20113;-86
2023/12/29 16:14:41;;;;;;;18.17;2.95;;;;;;;;;;5040618;28;20033;-84
2023/12/29 16:17:07;;;;;;;11.52;3.20;;;;;;;;;;5039422;28;20503;-85
2023/12/29 16:19:33;;;;;;;11.73;2.80;;;;;;;;;;5046934;28;20353;-84
2023/12/29 16:21:59;;;;;;;7.15;2.67;;;;;;;;;;5053347;28;20544;-85
2023/12/29 16:24:27;;;;;;;8.82;2.45;;;;;;;;;;5051499;28;20108;-84
2023/12/29 16:26:53;;;;;;;8.82;2.63;;;;;;;;;;5037053;28;20033;-87
2023/12/29 16:29:19;;;;;;;11.65;2.58;;;;;;;;;;5059825;28;20521;-84
2023/12/29 16:31:44;;;;;;;11.52;3.38;;;;;;;;;;5036742;28;20021;-83
2023/12/29 16:34:11;;;;;;;9.48;2.78;;;;;;;;;;5059361;28;20085;-86
2023/12/29 16:36:37;;;;;;;9.68;2.45;;;;;;;;;;5054793;28;20025;-84
2023/12/29 16:39:03;;;;;;;11.70;3.63;;;;;;;;;;5057486;28;20028;-86
2023/12/29 16:41:29;;;;;;;12.05;4.35;;;;;;;;;;5055064;28;20052;-83
2023/12/29 16:43:56;;;;;;;12.00;5.55;;;;;;;;;;5055734;28;20037;-84
2023/12/29 16:46:23;;;;;;;11.70;5.05;;;;;;;;;;5055460;28;20029;-85
2023/12/29 16:48:49;;;;;;;12.95;5.20;;;;;;;;;;5054033;28;20033;-84
2023/12/29 16:51:16;;;;;;;11.27;5.00;;;;;;;;;;5056499;28;20131;-84
2023/12/29 16:53:42;;;;;;;32.45;22.52;;;;;;;;;;5036897;28;20025;-84
2023/12/29 16:56:08;;;;;;;89.10;46.33;;;;;;;;;;5050189;28;20032;-88
2023/12/29 16:58:34;;;;;;;114.28;52.67;;;;;;;;;;5050169;28;20039;-84
2023/12/29 17:01:00;;;;;;;87.68;47.15;;;;;;;;;;5050297;28;20055;-89
2023/12/29 17:03:27;;;;;;;142.77;59.83;;;;;;;;;;5050217;28;20110;-87
2023/12/29 17:05:53;;;;;;;65.35;39.38;;;;;;;;;;5050333;28;20067;-86
2023/12/29 17:08:19;;;;;;;103.38;50.70;;;;;;;;;;5032961;28;20044;-85
2023/12/29 17:10:45;;;;;;;67.32;41.28;;;;;;;;;;5051105;28;20021;-86
2023/12/29 17:13:11;;;;;;;84.32;44.00;;;;;;;;;;5032890;28;20086;-87
2023/12/29 17:15:39;;;;;;;95.85;49.42;;;;;;;;;;5049945;28;20399;-86
2023/12/29 17:18:05;;;;;;;86.75;46.72;;;;;;;;;;5050478;28;20028;-86
2023/12/29 17:20:31;;;;;;;82.80;44.92;;;;;;;;;;5050143;28;20035;-86
2023/12/29 17:22:57;;;;;;;85.95;46.35;;;;;;;;;;5044711;28;20111;-91
2023/12/29 17:25:23;;;;;;;91.07;47.95;;;;;;;;;;5048485;28;20539;-84
2023/12/29 17:27:49;;;;;;;96.63;50.70;;;;;;;;;;5049454;28;20120;-85
2023/12/29 17:30:15;;;;;;;67.60;41.88;;;;;;;;;;5050701;28;20034;-85
2023/12/29 17:32:41;;;;;;;55.22;36.70;;;;;;;;;;5050473;28;20025;-84
2023/12/29 17:35:08;;;;;;;25.45;16.23;;;11.10;99.90;;;;;;5049327;28;20488;-84
2023/12/29 17:37:34;;;;;;;24.15;11.38;;;;;;;;;;5032121;28;20476;-86
2023/12/29 17:40:00;;;;;;;39.13;26.17;;;;;;;;;;5049375;28;20025;-84
2023/12/29 17:42:26;;;;;;;19.10;9.55;;;;;;;;;;5049549;28;20029;-83
2023/12/29 17:44:52;;;;;;;16.60;8.80;;;;;;;;;;5048822;28;20060;-85
2023/12/29 17:47:18;;;;;;;12.43;6.80;;;;;;;;;;5049612;28;20388;-85
2023/12/29 17:49:44;;;;;;;12.40;8.45;;;;;;;;;;5050365;28;20025;-87
2023/12/29 17:52:10;;;;;;;15.05;7.50;;;;;;;;;;5049417;28;20025;-87
2023/12/29 17:54:37;;;;;;;14.70;6.78;;;;;;;;;;5048821;28;20709;-85
2023/12/29 17:57:04;;;;;;;16.98;8.27;;;;;;;;;;5047531;28;20108;-85
2023/12/29 17:59:30;;;;;;;17.38;7.85;;;;;;;;;;5048911;28;20024;-84
2023/12/29 18:01:56;;;;;;;19.63;9.43;;;;;;;;;;5049039;28;20064;-86
2023/12/29 18:04:22;;;;;;;18.10;8.60;;;;;;;;;;5049146;28;20025;-86
2023/12/29 18:06:48;;;;;;;23.17;8.30;;;;;;;;;;5048100;28;20036;-85
2023/12/29 18:09:14;;;;;;;14.73;7.20;;;;;;;;;;5049845;28;20035;-84
2023/12/29 18:11:42;;;;;;;16.83;7.82;;;;;;;;;;5049114;28;20029;-85
2023/12/29 18:14:08;;;;;;;15.32;7.03;;;;;;;;;;5031215;28;20021;-84
2023/12/29 18:16:34;;;;;;;14.70;7.22;;;;;;;;;;5048761;28;20032;-84
2023/12/29 18:19:00;;;;;;;15.00;8.02;;;;;;;;;;5048640;28;20028;-86
2023/12/29 18:21:27;;;;;;;18.17;8.35;;;;;;;;;;5048786;28;20032;-88
2023/12/29 18:23:53;;;;;;;19.23;8.63;;;;;;;;;;5048465;28;20025;-87
2023/12/29 18:26:19;;;;;;;14.30;6.75;;;;;;;;;;5048200;28;20033;-90
2023/12/29 18:28:46;;;;;;;13.70;5.22;;;;;;;;;;5050195;28;20032;-88
2023/12/29 18:31:15;;;;;;;17.70;6.88;;;10.90;99.90;;;;;;5049476;28;20028;-87
2023/12/29 18:33:44;;;;;;;16.20;6.65;;;11.00;99.90;;;;;;5048116;28;20475;-88
2023/12/29 18:36:10;;;;;;;17.50;5.90;;;;;;;;;;5048801;28;20025;-86
2023/12/29 18:38:36;;;;;;;18.60;6.60;;;;;;;;;;5048640;28;20227;-89
2023/12/29 18:41:07;;;;;;;16.08;6.18;;;10.90;99.90;;;;;;5047024;28;20032;-88
2023/12/29 18:43:33;;;;;;;21.67;6.95;;;;;;;;;;5030400;28;20028;-86
2023/12/29 18:46:05;;;;;;;22.27;6.97;;;10.90;99.90;;;;;;5047824;28;20036;-87
2023/12/29 18:48:31;;;;;;;21.98;7.60;;;;;;;;;;5029993;28;20127;-87
2023/12/29 18:51:00;;;;;;;19.70;7.35;;;11.00;99.90;;;;;;5047938;28;20025;-86
2023/12/29 18:53:26;;;;;;;24.02;6.40;;;;;;;;;;5044974;28;20395;-87
2023/12/29 18:55:52;;;;;;;18.45;6.65;;;;;;;;;;5028237;28;20032;-85
2023/12/29 18:58:18;;;;;;;21.10;7.50;;;;;;;;;;5047734;28;20021;-87
2023/12/29 19:00:45;;;;;;;20.38;7.55;;;;;;;;;;5030925;28;20033;-86
2023/12/29 19:03:11;;;;;;;17.30;5.90;;;;;;;;;;5048213;28;20086;-85
2023/12/29 19:05:38;;;;;;;23.50;7.47;;;;;;;;;;5048286;28;20025;-86
2023/12/29 19:08:04;;;;;;;25.40;6.28;;;;;;;;;;5034138;28;20489;-87
2023/12/29 19:10:33;;;;;;;18.95;5.40;;;;;;;;;;5047149;28;20033;-88
2023/12/29 19:12:59;;;;;;;21.40;5.95;;;;;;;;;;5051465;28;20025;-85
2023/12/29 19:15:25;;;;;;;24.92;5.60;;;;;;;;;;5052386;28;20436;-87
2023/12/29 19:17:51;;;;;;;21.60;5.70;;;;;;;;;;5051693;28;20021;-85
2023/12/29 19:20:18;;;;;;;18.55;4.82;;;;;;;;;;5051973;28;20402;-85
2023/12/29 19:22:46;;;;;;;16.08;4.55;;;;;;;;;;5052467;28;20136;-85
2023/12/29 19:25:15;;;;;;;16.73;3.67;;;;;;;;;;5052180;28;20100;-88
2023/12/29 19:27:41;;;;;;;17.25;4.32;;;;;;;;;;5052033;28;20025;-89
2023/12/29 19:30:09;;;;;;;21.00;4.65;;;;;;;;;;5034053;28;20387;-86
2023/12/29 19:32:35;;;;;;;15.70;5.10;;;;;;;;;;5052641;28;20013;-88
2023/12/29 19:35:01;;;;;;;14.75;4.28;;;;;;;;;;5034676;28;20029;-86
2023/12/29 19:37:27;;;;;;;18.15;4.75;;;;;;;;;;5052572;28;20025;-89
2023/12/29 19:39:53;;;;;;;13.80;5.00;;;;;;;;;;5051833;28;20025;-87
2023/12/29 19:42:20;;;;;;;14.93;4.22;;;;;;;;;;5052287;28;20033;-85
2023/12/29 19:44:46;;;;;;;16.13;4.03;;;;;;;;;;5053310;28;20044;-85
2023/12/29 19:47:13;;;;;;;14.48;3.85;;;;;;;;;;5052196;28;20021;-86
2023/12/29 19:49:41;;;;;;;12.63;4.33;;;11.00;99.90;;;;;;5052040;28;20270;-86
2023/12/29 19:52:07;;;;;;;20.15;5.55;;;;;;;;;;5033762;28;20392;-86
2023/12/29 19:54:32;;;;;;;24.52;6.63;;;;;;;;;;5052290;28;20033;-85
2023/12/29 19:56:59;;;;;;;22.08;6.78;;;;;;;;;;5052133;28;20071;-85
2023/12/29 19:59:24;;;;;;;23.30;5.85;;;;;;;;;;5034201;28;20029;-86
2023/12/29 20:01:51;;;;;;;17.45;5.00;;;;;;;;;;5050447;28;20078;-85
2023/12/29 20:04:17;;;;;;;14.50;5.10;;;;;;;;;;5052887;28;20047;-85
2023/12/29 20:06:43;;;;;;;16.25;4.28;;;;;;;;;;5051964;28;20025;-86
2023/12/29 20:09:10;;;;;;;17.88;7.47;;;;;;;;;;5051942;28;20040;-85
2023/12/29 20:11:42;;;;;;;24.90;8.43;;;11.00;99.90;;;;;;5033140;28;20057;-85
2023/12/29 20:14:18;;;;;;;19.50;5.38;;;;;;;;;;5035318;28;20103;-86
2023/12/29 20:16:44;;;;;;;16.13;5.18;;;;;;;;;;5032030;28;20025;-87
2023/12/29 20:19:10;;;;;;;20.52;7.43;;;;;;;;;;5031899;28;20029;-87
2023/12/29 20:21:37;;;;;;;21.30;8.85;;;;;;;;;;5031523;28;20030;-85
2023/12/29 20:24:04;;;;;;;25.90;8.03;;;;;;;;;;5045508;28;20033;-88
2023/12/29 20:26:30;;;;;;;23.23;8.45;;;;;;;;;;5051723;28;20040;-86
2023/12/29 20:28:56;;;;;;;18.27;7.28;;;;;;;;;;5051396;28;20112;-86
2023/12/29 20:31:26;;;;;;;15.55;6.35;;;10.80;99.90;;;;;;5051917;28;20028;-85
2023/12/29 20:33:53;;;;;;;26.15;6.55;;;10.70;99.90;;;;;;5039012;28;20044;-85
2023/12/29 20:36:19;;;;;;;21.17;5.72;;;;;;;;;;5032210;28;20116;-86
2023/12/29 20:38:46;;;;;;;22.50;4.75;;;10.80;99.90;;;;;;5031507;28;20028;-85
2023/12/29 20:41:12;;;;;;;20.02;6.13;;;;;;;;;;5031446;28;20439;-87
2023/12/29 20:43:40;;;;;;;24.10;5.97;;;;;;;;;;5041588;28;20033;-88
2023/12/29 20:46:07;;;;;;;22.77;8.30;;;;;;;;;;5051383;28;20021;-87
2023/12/29 20:48:33;;;;;;;19.02;7.18;;;;;;;;;;5051210;28;20064;-87
2023/12/29 20:50:59;;;;;;;47.42;27.70;;;;;;;;;;5051185;28;20036;-87
2023/12/29 20:53:25;;;;;;;20.80;7.03;;;;;;;;;;5050381;28;20033;-84
2023/12/29 20:55:51;;;;;;;29.33;13.60;;;;;;;;;;5052047;28;20048;-87
2023/12/29 20:58:18;;;;;;;29.30;18.15;;;;;;;;;;5032671;28;20040;-86
2023/12/29 21:00:44;;;;;;;28.90;19.02;;;;;;;;;;5051002;28;20465;-86
2023/12/29 21:03:10;;;;;;;30.52;15.00;;;;;;;;;;5050389;28;20029;-87
2023/12/29 21:05:36;;;;;;;24.50;11.40;;;;;;;;;;5050933;28;20021;-88
2023/12/29 21:08:02;;;;;;;20.73;5.53;;;;;;;;;;5050193;28;20044;-87
2023/12/29 21:10:28;;;;;;;16.30;5.43;;;;;;;;;;5050882;28;20027;-85
2023/12/29 21:12:54;;;;;;;15.80;4.93;;;10.40;99.90;;;;;;5050990;28;20037;-86
2023/12/29 21:15:20;;;;;;;19.98;5.03;;;;;;;;;;5051611;28;20017;-86
2023/12/29 21:17:47;;;;;;;21.27;5.55;;;;;;;;;;5050672;28;20062;-86
2023/12/29 21:20:13;;;;;;;50.92;24.27;;;;;;;;;;5050512;28;20427;-84
2023/12/29 21:22:39;;;;;;;28.92;13.45;;;;;;;;;;5049946;28;20036;-86
2023/12/29 21:25:06;;;;;;;31.77;19.77;;;;;;;;;;5047853;28;20074;-87
2023/12/29 21:27:32;;;;;;;44.22;26.17;;;;;;;;;;5029873;28;20116;-85
2023/12/29 21:29:58;;;;;;;43.88;27.00;;;10.60;99.90;;;;;;5049537;28;20025;-88
2023/12/29 21:32:28;;;;;;;49.85;28.55;;;;;;;;;;5031946;28;20033;-86
2023/12/29 21:34:55;;;;;;;29.08;19.50;;;;;;;;;;5029889;28;20030;-87
2023/12/29 21:37:22;;;;;;;51.95;30.13;;;;;;;;;;5030915;28;20101;-89
2023/12/29 21:39:48;;;;;;;32.03;18.05;;;;;;;;;;5011761;28;20029;-87
2023/12/29 21:42:14;;;;;;;55.28;31.48;;;;;;;;;;5044477;28;20029;-88
2023/12/29 21:44:41;;;;;;;75.47;38.50;;;;;;;;;;5049374;28;20104;-88
2023/12/29 21:47:08;;;;;;;20.58;5.90;;;;;;;;;;5049662;28;20536;-87
2023/12/29 21:49:39;;;;;;;28.00;14.57;;;;;;;;;;5049214;28;20500;-87
2023/12/29 21:52:06;;;;;;;18.33;6.60;;;;;;;;;;5049033;28;20500;-87
2023/12/29 21:54:32;;;;;;;24.42;15.93;;;;;;;;;;5049165;28;20033;-88
2023/12/29 21:56:59;;;;;;;18.85;7.10;;;;;;;;;;5047900;28;20021;-88
2023/12/29 21:59:27;;;;;;;31.77;18.27;;;10.30;99.90;;;;;;5049883;28;20040;-86
2023/12/29 22:01:55;;;;;;;37.58;25.55;;;;;;;;;;5049728;28;20041;-85
2023/12/29 22:04:21;;;;;;;51.08;32.47;;;;;;;;;;5049209;28;20013;-84
2023/12/29 22:06:47;;;;;;;53.50;33.33;;;;;;;;;;5048518;28;20029;-85
2023/12/29 22:09:16;;;;;;;60.30;37.30;;;;;;;;;;5049209;28;20033;-86
2023/12/29 22:11:43;;;;;;;54.17;34.65;;;;;;;;;;5029247;28;20070;-85
2023/12/29 22:14:09;;;;;;;77.72;42.75;;;;;;;;;;5030590;28;20083;-87
2023/12/29 22:16:35;;;;;;;81.70;45.97;;;;;;;;;;5048378;28;20029;-85
2023/12/29 22:19:01;;;;;;;50.92;32.70;;;;;;;;;;5048216;28;20033;-87
2023/12/29 22:21:27;;;;;;;19.23;8.38;;;;;;;;;;5049242;28;20068;-85
2023/12/29 22:23:53;;;;;;;17.55;8.18;;;;;;;;;;5032131;28;20365;-88
2023/12/29 22:26:19;;;;;;;15.57;7.18;;;;;;;;;;5030741;28;20021;-84
2023/12/29 22:28:49;;;;;;;20.23;8.95;;;9.80;99.90;;;;;;5030399;28;20033;-84
2023/12/29 22:31:15;;;;;;;16.23;6.40;;;9.80;99.90;;;;;;5048527;28;20377;-84
2023/12/29 22:33:43;;;;;;;13.27;6.32;;;9.70;99.90;;;;;;5048721;28;20044;-89
2023/12/29 22:36:10;;;;;;;18.27;6.90;;;9.60;99.90;;;;;;5048754;28;20064;-89
2023/12/29 22:38:36;;;;;;;20.92;8.25;;;;;;;;;;5048651;28;20025;-88
2023/12/29 22:41:05;;;;;;;15.73;7.72;;;9.50;99.90;;;;;;5030602;28;20025;-88
2023/12/29 22:43:31;;;;;;;14.13;6.68;;;;;;;;;;5048043;28;20021;-88
2023/12/29 22:45:57;;;;;;;11.25;4.93;;;;;;;;;;5048137;28;20025;-85
2023/12/29 22:48:23;;;;;;;12.48;4.43;;;;;;;;;;5049420;28;20037;-85
2023/12/29 22:50:50;;;;;;;159.75;61.58;;;;;;;;;;5048311;28;20047;-87
2023/12/29 22:53:16;;;;;;;15.65;6.18;;;;;;;;;;5048415;28;20025;-86
2023/12/29 22:55:42;;;;;;;21.45;7.55;;;;;;;;;;5048367;28;20434;-85
2023/12/29 22:58:09;;;;;;;17.35;7.55;;;;;;;;;;5048333;28;20055;-88
2023/12/29 23:00:36;;;;;;;13.38;7.22;;;;;;;;;;5030363;28;20036;-85
2023/12/29 23:03:04;;;;;;;15.35;5.68;;;9.30;99.90;;;;;;5048461;28;20499;-87
2023/12/29 23:05:30;;;;;;;15.27;5.97;;;;;;;;;;5048378;28;20400;-86
2023/12/29 23:07:56;;;;;;;12.73;5.88;;;;;;;;;;5049041;28;20036;-85
2023/12/29 23:10:22;;;;;;;14.25;5.40;;;;;;;;;;5049126;28;20025;-88
2023/12/29 23:12:49;;;;;;;12.15;5.32;;;;;;;;;;5048295;28;20021;-87
2023/12/29 23:15:15;;;;;;;16.55;6.63;;;;;;;;;;5048095;28;20029;-86
2023/12/29 23:17:41;;;;;;;15.45;6.80;;;;;;;;;;5047948;28;20044;-88
2023/12/29 23:20:07;;;;;;;12.95;5.75;;;9.30;99.90;;;;;;5031192;28;20033;-86
2023/12/29 23:22:34;;;;;;;19.55;7.85;;;;;;;;;;5027869;28;20105;-86
2023/12/29 23:25:00;;;;;;;16.25;6.30;;;;;;;;;;5028374;28;20040;-86
2023/12/29 23:27:26;;;;;;;16.08;6.28;;;;;;;;;;5028852;28;20100;-85
2023/12/29 23:29:52;;;;;;;13.55;6.32;;;;;;;;;;5028126;28;20030;-88
2023/12/29 23:32:21;;;;;;;12.65;5.43;;;;;;;;;;5038555;28;20028;-87
2023/12/29 23:34:48;;;;;;;13.13;5.35;;;;;;;;;;5047984;28;20352;-88
2023/12/29 23:37:14;;;;;;;16.08;6.45;;;;;;;;;;5048215;28;20123;-89
2023/12/29 23:39:41;;;;;;;18.38;6.55;;;;;;;;;;5047761;28;20463;-86
2023/12/29 23:42:07;;;;;;;15.73;6.30;;;;;;;;;;5047769;28;20103;-89
2023/12/29 23:44:33;;;;;;;16.95;7.15;;;;;;;;;;5048199;28;20500;-88
2023/12/29 23:46:59;;;;;;;17.13;5.15;;;;;;;;;;5030078;28;20028;-89
2023/12/29 23:49:27;;;;;;;10.65;4.95;;;9.10;99.90;;;;;;5048767;28;20605;-89
2023/12/29 23:51:53;;;;;;;11.98;4.55;;;;;;;;;;5049113;28;20053;-86
2023/12/29 23:54:19;;;;;;;9.27;4.32;;;;;;;;;;5048020;28;20025;-88
2023/12/29 23:56:45;;;;;;;16.98;5.97;;;;;;;;;;5047627;28;20439;-88
2023/12/29 23:59:11;;;;;;;15.23;5.82;;;;;;;;;;5051542;28;20060;-88
